createdAt,value
2022-11-28T00:00:27.702Z,9.90
2022-11-28T00:03:39.722Z,9.80
2022-11-28T00:06:27.650Z,9.70
2022-11-28T00:09:15.374Z,9.70
2022-11-28T00:12:11.033Z,9.70
2022-11-28T00:14:57.782Z,9.70
2022-11-28T00:17:45.820Z,9.60
2022-11-28T00:20:33.485Z,9.60
2022-11-28T00:23:20.772Z,9.50
2022-11-28T00:53:27.638Z,9.00
2022-11-28T01:02:02.755Z,8.80
2022-11-28T01:16:11.967Z,8.60
2022-11-28T01:24:16.788Z,8.40
2022-11-28T01:54:16.442Z,8.10
2022-11-28T04:18:57.864Z,7.40
2022-11-28T04:21:58.593Z,7.40
2022-11-28T04:24:51.357Z,7.30
2022-11-28T04:28:01.813Z,7.40
2022-11-28T04:30:50.535Z,7.40
2022-11-28T04:33:43.799Z,7.40
2022-11-28T04:36:32.963Z,7.50
2022-11-28T04:39:23.273Z,7.40
2022-11-28T04:42:21.454Z,7.40
2022-11-28T04:45:28.525Z,7.40
2022-11-28T04:48:14.461Z,7.40
2022-11-28T04:51:09.382Z,7.40
2022-11-28T04:54:06.828Z,7.30
2022-11-28T04:57:12.139Z,7.30
2022-11-28T05:00:01.151Z,7.30
2022-11-28T05:02:51.591Z,7.30
2022-11-28T05:05:50.310Z,7.30
2022-11-28T05:08:36.496Z,7.30
2022-11-28T05:11:22.727Z,7.20
2022-11-28T05:14:09.034Z,7.10
2022-11-28T05:16:55.030Z,7.10
2022-11-28T05:19:40.901Z,7.10
2022-11-28T05:22:26.851Z,7.20
2022-11-28T05:25:12.806Z,7.00
2022-11-28T05:27:59.135Z,6.90
2022-11-28T05:30:45.381Z,6.90
2022-11-28T05:33:32.496Z,6.80
2022-11-28T05:36:18.855Z,6.70
2022-11-28T05:39:04.769Z,6.70
2022-11-28T05:41:50.822Z,6.80
2022-11-28T05:44:37.804Z,6.80
2022-11-28T05:47:25.176Z,6.70
2022-11-28T05:50:11.171Z,6.80
2022-11-28T05:52:57.369Z,6.80
2022-11-28T05:55:43.419Z,6.90
2022-11-28T05:58:29.505Z,6.90
2022-11-28T06:01:20.255Z,6.90
2022-11-28T06:04:06.616Z,7.00
2022-11-28T06:06:52.980Z,6.90
2022-11-28T06:09:38.950Z,6.90
2022-11-28T06:12:24.846Z,6.90
2022-11-28T06:15:11.074Z,6.90
2022-11-28T06:17:57.170Z,6.90
2022-11-28T06:20:43.155Z,6.90
2022-11-28T06:23:29.414Z,6.90
2022-11-28T06:26:18.078Z,6.90
2022-11-28T06:29:04.788Z,6.90
2022-11-28T06:31:50.640Z,6.90
2022-11-28T06:34:37.310Z,6.90
2022-11-28T06:37:24.011Z,6.90
2022-11-28T06:40:10.192Z,6.90
2022-11-28T06:42:56.119Z,6.80
2022-11-28T06:45:44.002Z,6.80
2022-11-28T06:48:30.511Z,6.80
2022-11-28T06:51:17.883Z,6.70
2022-11-28T06:54:03.846Z,6.70
2022-11-28T06:56:50.444Z,6.70
2022-11-28T06:59:36.341Z,6.60
2022-11-28T07:02:24.983Z,6.70
2022-11-28T07:05:11.572Z,6.60
2022-11-28T07:07:58.698Z,6.60
2022-11-28T07:10:47.881Z,6.60
2022-11-28T07:13:34.010Z,6.50
2022-11-28T07:16:23.282Z,6.50
2022-11-28T07:19:12.575Z,6.50
2022-11-28T07:21:58.738Z,6.50
2022-11-28T07:24:44.528Z,6.40
2022-11-28T07:27:30.522Z,6.50
2022-11-28T07:30:17.020Z,6.40
2022-11-28T07:33:03.362Z,6.40
2022-11-28T07:35:49.411Z,6.40
2022-11-28T07:38:36.516Z,6.40
2022-11-28T07:41:26.432Z,6.40
2022-11-28T07:44:13.157Z,6.30
2022-11-28T07:46:59.421Z,6.30
2022-11-28T07:49:45.528Z,6.20
2022-11-28T07:52:31.689Z,6.30
2022-11-28T07:55:17.851Z,6.30
2022-11-28T07:58:07.257Z,6.30
2022-11-28T08:00:53.860Z,6.30
2022-11-28T08:03:40.398Z,6.30
2022-11-28T08:06:28.527Z,6.30
2022-11-28T08:09:17.472Z,6.20
2022-11-28T08:12:03.611Z,6.30
2022-11-28T08:14:50.327Z,6.20
2022-11-28T08:17:39.979Z,6.30
2022-11-28T08:20:25.780Z,6.40
2022-11-28T08:23:11.960Z,6.30
2022-11-28T08:25:59.911Z,6.40
2022-11-28T08:28:46.207Z,6.40
2022-11-28T08:31:35.249Z,6.50
2022-11-28T08:34:21.755Z,6.40
2022-11-28T08:37:08.088Z,6.40
2022-11-28T08:39:53.976Z,6.40
2022-11-28T08:42:40.005Z,6.50
2022-11-28T08:45:25.885Z,6.50
2022-11-28T08:48:11.753Z,6.50
2022-11-28T08:50:57.594Z,6.50
2022-11-28T08:53:48.687Z,6.50
2022-11-28T08:56:35.588Z,6.60
2022-11-28T08:59:22.392Z,6.60
2022-11-28T09:02:12.527Z,6.70
2022-11-28T09:04:58.420Z,6.70
2022-11-28T09:07:44.378Z,6.70
2022-11-28T09:10:30.286Z,6.70
2022-11-28T09:13:16.151Z,6.70
2022-11-28T09:16:02.854Z,6.80
2022-11-28T09:18:48.863Z,6.90
2022-11-28T09:21:35.391Z,7.00
2022-11-28T09:24:21.466Z,7.00
2022-11-28T09:27:07.187Z,7.10
2022-11-28T09:29:53.256Z,7.20
2022-11-28T09:32:42.382Z,7.30
2022-11-28T09:35:28.710Z,7.30
2022-11-28T09:38:14.840Z,7.40
2022-11-28T09:41:02.698Z,7.40
2022-11-28T09:43:54.734Z,7.50
2022-11-28T09:46:42.867Z,7.50
2022-11-28T09:49:40.721Z,7.60
2022-11-28T09:52:33.823Z,7.70
2022-11-28T09:55:39.152Z,7.70
2022-11-28T09:58:40.135Z,7.90
2022-11-28T10:01:34.290Z,8.00
2022-11-28T10:04:29.511Z,8.10
2022-11-28T10:07:41.853Z,8.20
2022-11-28T10:10:58.985Z,8.30
2022-11-28T10:14:08.931Z,8.40
2022-11-28T10:17:16.060Z,8.60
2022-11-28T10:20:29.441Z,8.70
2022-11-28T10:23:24.797Z,8.70
2022-11-28T10:26:33.235Z,8.90
2022-11-28T10:29:27.774Z,8.90
2022-11-28T10:32:20.532Z,9.00
2022-11-28T10:35:29.406Z,9.00
2022-11-28T10:38:17.078Z,9.10
2022-11-28T10:41:32.971Z,9.30
2022-11-28T10:44:28.963Z,9.40
2022-11-28T10:47:48.514Z,9.40
2022-11-28T10:50:49.832Z,9.50
2022-11-28T10:54:06.938Z,9.50
2022-11-28T10:57:02.218Z,9.60
2022-11-28T11:00:03.826Z,9.60
2022-11-28T11:02:56.454Z,9.70
2022-11-28T11:05:42.475Z,9.70
2022-11-28T11:08:33.723Z,9.80
2022-11-28T11:11:30.438Z,9.90
2022-11-28T11:14:33.498Z,10.00
2022-11-28T11:17:39.641Z,10.10
2022-11-28T11:20:33.836Z,10.20
2022-11-28T11:23:22.751Z,10.30
2022-11-28T11:26:19.687Z,10.40
2022-11-28T11:29:06.562Z,10.60
2022-11-28T11:31:54.134Z,10.60
2022-11-28T11:34:45.942Z,10.60
2022-11-28T11:37:37.725Z,10.60
2022-11-28T11:40:29.445Z,10.60
2022-11-28T11:43:31.766Z,10.60
2022-11-28T11:46:18.136Z,10.60
2022-11-28T11:49:04.003Z,10.50
2022-11-28T11:51:57.103Z,10.50
2022-11-28T11:54:59.732Z,10.40
2022-11-28T11:57:53.977Z,10.30
2022-11-28T12:00:40.950Z,10.40
2022-11-28T12:03:51.634Z,10.40
2022-11-28T12:06:40.170Z,10.50
2022-11-28T12:09:40.501Z,10.60
2022-11-28T12:12:30.678Z,10.60
2022-11-28T12:15:38.629Z,10.80
2022-11-28T12:18:36.755Z,10.80
2022-11-28T12:22:12.996Z,10.90
2022-11-28T12:25:17.459Z,11.00
2022-11-28T12:28:21.915Z,11.10
2022-11-28T12:31:18.347Z,11.20
2022-11-28T12:34:30.394Z,11.30
2022-11-28T12:37:42.537Z,11.40
2022-11-28T12:40:44.435Z,11.50
2022-11-28T12:43:50.855Z,11.50
2022-11-28T12:46:51.408Z,11.50
2022-11-28T12:49:56.412Z,11.50
2022-11-28T12:52:58.723Z,11.50
2022-11-28T12:56:07.787Z,11.50
2022-11-28T12:59:03.563Z,11.50
2022-11-28T13:02:24.040Z,11.60
2022-11-28T13:05:28.824Z,11.70
2022-11-28T13:08:36.664Z,11.80
2022-11-28T13:11:43.980Z,11.80
2022-11-28T13:14:41.705Z,11.80
2022-11-28T13:18:03.231Z,11.80
2022-11-28T13:20:58.840Z,11.70
2022-11-28T13:24:08.746Z,11.70
2022-11-28T13:27:25.977Z,11.60
2022-11-28T13:30:25.461Z,11.60
2022-11-28T13:33:30.630Z,11.60
2022-11-28T13:40:01.512Z,11.50
2022-11-28T13:43:06.699Z,11.50
2022-11-28T13:45:54.514Z,11.50
2022-11-28T13:49:12.659Z,11.50
2022-11-28T13:51:48.087Z,11.50
2022-11-28T13:54:34.798Z,11.50
2022-11-28T13:57:24.787Z,11.40
2022-11-28T14:00:23.915Z,11.40
2022-11-28T14:03:21.154Z,11.40
2022-11-28T14:06:07.863Z,11.30
2022-11-28T14:09:09.222Z,11.30
2022-11-28T14:12:14.070Z,11.20
2022-11-28T14:15:43.530Z,11.20
2022-11-28T14:18:58.728Z,11.20
2022-11-28T14:21:59.712Z,11.10
2022-11-28T14:25:18.638Z,11.10
2022-11-28T14:28:14.690Z,11.20
2022-11-28T14:31:24.250Z,11.20
2022-11-28T14:34:37.028Z,11.10
2022-11-28T14:37:29.379Z,11.20
2022-11-28T14:40:52.913Z,11.30
2022-11-28T14:43:45.885Z,11.20
2022-11-28T14:46:32.708Z,11.30
2022-11-28T14:49:20.172Z,11.30
2022-11-28T14:52:37.109Z,11.40
2022-11-28T14:55:21.463Z,11.40
2022-11-28T14:58:16.706Z,11.30
2022-11-28T15:01:07.965Z,11.30
2022-11-28T15:04:54.862Z,11.30
2022-11-28T15:08:26.164Z,11.30
2022-11-28T15:11:44.722Z,11.30
2022-11-28T15:14:33.984Z,11.30
2022-11-28T15:17:28.411Z,11.30
2022-11-28T15:20:23.055Z,11.30
2022-11-28T15:23:35.520Z,11.20
2022-11-28T15:26:28.190Z,11.20
2022-11-28T15:29:21.475Z,11.10
2022-11-28T15:32:07.935Z,11.00
2022-11-28T15:35:10.912Z,11.00
2022-11-28T15:37:59.853Z,10.90
2022-11-28T15:40:51.529Z,10.90
2022-11-28T15:43:42.054Z,10.80
2022-11-28T15:46:34.169Z,10.70
2022-11-28T15:49:35.231Z,10.70
2022-11-28T15:52:21.479Z,10.60
2022-11-28T15:55:20.227Z,10.50
2022-11-28T15:58:32.790Z,10.40
2022-11-28T16:01:24.323Z,10.30
2022-11-28T16:04:17.614Z,10.30
2022-11-28T16:07:04.147Z,10.20
2022-11-28T16:10:03.853Z,10.10
2022-11-28T16:12:51.775Z,10.10
2022-11-28T16:15:38.948Z,10.10
2022-11-28T16:18:27.495Z,10.00
2022-11-28T16:21:14.618Z,10.00
2022-11-28T16:24:01.710Z,10.00
2022-11-28T16:26:59.980Z,10.00
2022-11-28T16:29:46.857Z,10.00
2022-11-28T16:32:38.884Z,9.90
2022-11-28T16:35:33.976Z,9.80
2022-11-28T16:38:23.715Z,9.80
2022-11-28T16:41:32.982Z,9.70
2022-11-28T16:44:23.847Z,9.60
2022-11-28T16:47:29.328Z,9.60
2022-11-28T16:50:21.532Z,9.40
2022-11-28T16:53:27.129Z,9.40
2022-11-28T16:56:25.474Z,9.30
2022-11-28T16:59:15.937Z,9.20
2022-11-28T17:02:02.388Z,9.10
2022-11-28T17:04:49.701Z,9.00
2022-11-28T17:07:35.698Z,9.00
2022-11-28T17:10:21.744Z,8.90
2022-11-28T17:13:12.503Z,8.80
2022-11-28T17:15:59.645Z,8.80
2022-11-28T17:18:46.272Z,8.70
2022-11-28T17:21:42.694Z,8.60
2022-11-28T17:24:34.519Z,8.60
2022-11-28T17:27:21.079Z,8.50
2022-11-28T17:30:07.791Z,8.50
2022-11-28T17:32:53.680Z,8.40
2022-11-28T17:35:43.115Z,8.40
2022-11-28T17:38:33.195Z,8.40
2022-11-28T17:41:19.459Z,8.40
2022-11-28T17:44:06.211Z,8.40
2022-11-28T17:46:53.455Z,8.40
2022-11-28T17:49:45.956Z,8.50
2022-11-28T17:52:32.808Z,8.40
2022-11-28T17:55:20.656Z,8.40
2022-11-28T17:58:07.591Z,8.40
2022-11-28T18:00:59.987Z,8.40
2022-11-28T18:03:47.159Z,8.50
2022-11-28T18:06:33.670Z,8.50
2022-11-28T18:09:19.967Z,8.50
2022-11-28T18:12:06.662Z,8.60
2022-11-28T18:14:53.312Z,8.50
2022-11-28T18:17:39.311Z,8.50
2022-11-28T18:20:28.885Z,8.50
2022-11-28T18:23:15.640Z,8.50
2022-11-28T18:26:13.873Z,8.50
2022-11-28T18:29:01.671Z,8.50
2022-11-28T18:31:50.612Z,8.60
2022-11-28T18:34:36.963Z,8.60
2022-11-28T18:37:22.807Z,8.70
2022-11-28T18:40:09.729Z,8.70
2022-11-28T18:42:56.628Z,8.70
2022-11-28T18:45:42.602Z,8.80
2022-11-28T18:48:28.671Z,8.70
2022-11-28T18:51:20.513Z,8.80
2022-11-28T18:54:09.711Z,8.80
2022-11-28T18:56:55.688Z,8.80
2022-11-28T18:59:47.814Z,8.80
2022-11-28T19:02:37.448Z,8.80
2022-11-28T19:05:23.623Z,8.80
2022-11-28T19:08:10.215Z,8.70
2022-11-28T19:10:56.226Z,8.70
2022-11-28T19:13:47.176Z,8.70
2022-11-28T19:16:35.680Z,8.60
2022-11-28T19:19:21.582Z,8.60
2022-11-28T19:22:08.903Z,8.50
2022-11-28T19:24:54.924Z,8.50
2022-11-28T19:27:41.424Z,8.50
2022-11-28T19:30:27.420Z,8.30
2022-11-28T19:33:13.232Z,8.30
2022-11-28T19:36:03.580Z,8.20
2022-11-28T19:38:50.024Z,8.20
2022-11-28T19:41:37.076Z,8.10
2022-11-28T19:44:24.617Z,8.10
2022-11-28T19:47:12.629Z,8.10
2022-11-28T19:49:58.713Z,8.10
2022-11-28T19:52:44.706Z,8.00
2022-11-28T19:55:31.935Z,8.00
2022-11-28T19:58:18.812Z,7.90
2022-11-28T20:01:07.362Z,7.80
2022-11-28T20:03:54.130Z,7.80
2022-11-28T20:06:40.471Z,7.70
2022-11-28T20:09:28.461Z,7.70
2022-11-28T20:12:14.667Z,7.60
2022-11-28T20:15:02.284Z,7.60
2022-11-28T20:17:48.423Z,7.60
2022-11-28T20:20:37.038Z,7.50
2022-11-28T20:23:23.035Z,7.40
2022-11-28T20:26:10.582Z,7.30
2022-11-28T20:28:57.558Z,7.30
2022-11-28T20:31:46.021Z,7.20
2022-11-28T20:34:34.566Z,7.10
2022-11-28T20:37:20.854Z,7.10
2022-11-28T20:40:07.498Z,7.00
2022-11-28T20:42:53.310Z,7.00
2022-11-28T20:45:39.275Z,7.00
2022-11-28T20:48:25.343Z,7.00
2022-11-28T20:51:14.206Z,7.00
2022-11-28T20:54:01.024Z,6.90
2022-11-28T20:57:13.264Z,6.90
2022-11-28T20:59:56.653Z,6.90
2022-11-28T21:02:44.615Z,6.90
2022-11-28T21:05:30.715Z,6.90
2022-11-28T21:08:17.042Z,6.90
2022-11-28T21:11:55.622Z,6.90
2022-11-28T21:14:37.107Z,6.90
2022-11-28T21:17:23.139Z,6.90
2022-11-28T21:20:09.810Z,7.00
2022-11-28T21:22:55.767Z,7.00
2022-11-28T21:25:43.416Z,7.10
2022-11-28T21:28:29.320Z,7.00
2022-11-28T21:31:23.809Z,7.10
2022-11-28T21:34:14.647Z,7.10
2022-11-28T21:37:00.963Z,7.10
2022-11-28T21:39:47.314Z,7.10
2022-11-28T21:42:33.242Z,7.20
2022-11-28T21:45:19.332Z,7.20
2022-11-28T21:48:05.710Z,7.20
2022-11-28T21:50:51.638Z,7.20
2022-11-28T21:53:37.388Z,7.20
2022-11-28T21:56:25.331Z,7.30
2022-11-28T21:59:12.325Z,7.30
2022-11-28T22:02:04.035Z,7.30
2022-11-28T22:04:54.795Z,7.30
2022-11-28T22:07:41.242Z,7.30
2022-11-28T22:10:27.387Z,7.30
2022-11-28T22:13:13.578Z,7.30
2022-11-28T22:15:59.605Z,7.30
2022-11-28T22:18:46.716Z,7.30
2022-11-28T22:24:39.594Z,7.20
2022-11-28T22:27:26.019Z,7.10
2022-11-28T22:30:12.542Z,7.10
2022-11-28T22:32:58.505Z,7.10
2022-11-28T22:35:45.528Z,7.10
2022-11-28T22:38:32.281Z,7.10
2022-11-28T22:41:26.343Z,7.10
2022-11-28T22:44:13.882Z,7.00
2022-11-28T22:46:59.821Z,7.00
2022-11-28T22:49:46.178Z,7.00
2022-11-28T22:52:32.899Z,7.00
2022-11-28T22:55:18.779Z,7.00
2022-11-28T22:58:04.886Z,7.10
2022-11-28T23:00:51.098Z,7.10
2022-11-28T23:03:39.921Z,7.10
2022-11-28T23:06:32.419Z,7.00
2022-11-28T23:09:18.674Z,7.10
2022-11-28T23:12:04.761Z,7.10
2022-11-28T23:14:51.761Z,7.10
2022-11-28T23:17:38.227Z,7.10
2022-11-28T23:20:24.612Z,7.10
2022-11-28T23:23:10.456Z,7.20
2022-11-28T23:26:05.265Z,7.20
2022-11-28T23:28:53.494Z,7.20
2022-11-28T23:31:41.789Z,7.20
2022-11-28T23:34:28.147Z,7.10
2022-11-28T23:37:14.466Z,7.10
2022-11-28T23:40:00.762Z,7.10
2022-11-28T23:42:46.976Z,7.10
2022-11-28T23:45:33.041Z,7.10
2022-11-28T23:48:19.559Z,7.10
2022-11-28T23:51:06.800Z,7.00
2022-11-28T23:53:53.334Z,7.00
2022-11-28T23:56:41.511Z,6.90
2022-11-28T23:59:28.053Z,6.90
